sensor_id;sensor_type;location;lat;lon;timestamp;P1;durP1;ratioP1;P2;durP2;ratioP2
7529;SDS011;3806;52.270;10.544;2022-10-16T00:01:59;1.73;;;1.30;;
7529;SDS011;3806;52.270;10.544;2022-10-16T00:04:24;1.83;;;0.95;;
7529;SDS011;3806;52.270;10.544;2022-10-16T00:06:50;2.08;;;0.90;;
7529;SDS011;3806;52.270;10.544;2022-10-16T00:09:16;1.83;;;1.30;;
7529;SDS011;3806;52.270;10.544;2022-10-16T00:11:41;1.60;;;1.27;;
7529;SDS011;3806;52.270;10.544;2022-10-16T00:14:09;3.25;;;1.08;;
7529;SDS011;3806;52.270;10.544;2022-10-16T00:16:36;4.28;;;1.30;;
7529;SDS011;3806;52.270;10.544;2022-10-16T00:19:02;2.80;;;1.30;;
7529;SDS011;3806;52.270;10.544;2022-10-16T00:21:29;1.88;;;1.10;;
7529;SDS011;3806;52.270;10.544;2022-10-16T00:24:00;1.30;;;1.17;;
7529;SDS011;3806;52.270;10.544;2022-10-16T00:26:31;1.42;;;0.95;;
7529;SDS011;3806;52.270;10.544;2022-10-16T00:28:58;3.15;;;1.05;;
7529;SDS011;3806;52.270;10.544;2022-10-16T00:31:24;1.67;;;1.17;;
7529;SDS011;3806;52.270;10.544;2022-10-16T00:33:50;2.60;;;1.20;;
7529;SDS011;3806;52.270;10.544;2022-10-16T00:36:17;1.92;;;1.25;;
7529;SDS011;3806;52.270;10.544;2022-10-16T00:38:45;3.90;;;1.20;;
7529;SDS011;3806;52.270;10.544;2022-10-16T00:41:15;3.90;;;1.48;;
7529;SDS011;3806;52.270;10.544;2022-10-16T00:43:49;1.55;;;1.45;;
7529;SDS011;3806;52.270;10.544;2022-10-16T00:46:26;2.20;;;1.00;;
7529;SDS011;3806;52.270;10.544;2022-10-16T00:49:07;1.85;;;1.20;;
7529;SDS011;3806;52.270;10.544;2022-10-16T00:51:40;2.70;;;1.10;;
7529;SDS011;3806;52.270;10.544;2022-10-16T00:54:09;2.00;;;1.08;;
7529;SDS011;3806;52.270;10.544;2022-10-16T00:56:38;2.90;;;0.90;;
7529;SDS011;3806;52.270;10.544;2022-10-16T00:59:05;2.20;;;1.42;;
7529;SDS011;3806;52.270;10.544;2022-10-16T01:01:36;2.03;;;1.45;;
7529;SDS011;3806;52.270;10.544;2022-10-16T01:04:01;1.35;;;1.10;;
7529;SDS011;3806;52.270;10.544;2022-10-16T01:09:37;2.92;;;2.03;;
7529;SDS011;3806;52.270;10.544;2022-10-16T01:12:31;2.33;;;1.27;;
7529;SDS011;3806;52.270;10.544;2022-10-16T01:22:46;2.90;;;1.20;;
7529;SDS011;3806;52.270;10.544;2022-10-16T01:25:36;3.60;;;1.48;;
7529;SDS011;3806;52.270;10.544;2022-10-16T01:28:21;1.83;;;1.40;;
7529;SDS011;3806;52.270;10.544;2022-10-16T01:30:51;1.10;;;1.00;;
7529;SDS011;3806;52.270;10.544;2022-10-16T01:33:22;1.50;;;1.15;;
7529;SDS011;3806;52.270;10.544;2022-10-16T01:36:02;1.83;;;1.13;;
7529;SDS011;3806;52.270;10.544;2022-10-16T01:38:34;2.10;;;1.30;;
7529;SDS011;3806;52.270;10.544;2022-10-16T01:41:08;1.02;;;1.00;;
7529;SDS011;3806;52.270;10.544;2022-10-16T01:43:43;1.63;;;1.13;;
7529;SDS011;3806;52.270;10.544;2022-10-16T01:46:32;2.28;;;1.20;;
7529;SDS011;3806;52.270;10.544;2022-10-16T01:49:02;1.83;;;1.38;;
7529;SDS011;3806;52.270;10.544;2022-10-16T01:51:29;1.52;;;1.40;;
7529;SDS011;3806;52.270;10.544;2022-10-16T01:53:55;2.50;;;1.27;;
7529;SDS011;3806;52.270;10.544;2022-10-16T01:56:24;1.75;;;1.35;;
7529;SDS011;3806;52.270;10.544;2022-10-16T01:58:52;1.40;;;1.10;;
7529;SDS011;3806;52.270;10.544;2022-10-16T02:01:31;1.30;;;1.20;;
7529;SDS011;3806;52.270;10.544;2022-10-16T02:04:03;2.88;;;1.25;;
7529;SDS011;3806;52.270;10.544;2022-10-16T02:06:34;1.85;;;1.40;;
7529;SDS011;3806;52.270;10.544;2022-10-16T02:09:00;6.15;;;1.70;;
7529;SDS011;3806;52.270;10.544;2022-10-16T02:11:26;2.58;;;1.30;;
7529;SDS011;3806;52.270;10.544;2022-10-16T02:13:57;1.55;;;1.20;;
7529;SDS011;3806;52.270;10.544;2022-10-16T02:16:34;1.50;;;1.23;;
7529;SDS011;3806;52.270;10.544;2022-10-16T02:19:10;1.80;;;1.30;;
7529;SDS011;3806;52.270;10.544;2022-10-16T02:21:44;1.55;;;1.08;;
7529;SDS011;3806;52.270;10.544;2022-10-16T02:29:50;2.58;;;1.20;;
7529;SDS011;3806;52.270;10.544;2022-10-16T02:32:24;2.85;;;1.20;;
7529;SDS011;3806;52.270;10.544;2022-10-16T02:34:55;1.73;;;1.50;;
7529;SDS011;3806;52.270;10.544;2022-10-16T02:37:23;1.65;;;1.40;;
7529;SDS011;3806;52.270;10.544;2022-10-16T02:39:50;2.25;;;1.50;;
7529;SDS011;3806;52.270;10.544;2022-10-16T02:42:17;3.55;;;1.60;;
7529;SDS011;3806;52.270;10.544;2022-10-16T02:44:43;1.80;;;1.38;;
7529;SDS011;3806;52.270;10.544;2022-10-16T02:47:09;4.18;;;1.70;;
7529;SDS011;3806;52.270;10.544;2022-10-16T02:49:34;3.55;;;1.50;;
7529;SDS011;3806;52.270;10.544;2022-10-16T02:52:00;2.38;;;1.73;;
7529;SDS011;3806;52.270;10.544;2022-10-16T02:54:26;3.72;;;1.45;;
7529;SDS011;3806;52.270;10.544;2022-10-16T02:56:51;2.78;;;1.58;;
7529;SDS011;3806;52.270;10.544;2022-10-16T02:59:17;3.13;;;1.65;;
7529;SDS011;3806;52.270;10.544;2022-10-16T03:01:42;4.40;;;1.83;;
7529;SDS011;3806;52.270;10.544;2022-10-16T03:04:08;3.47;;;1.75;;
7529;SDS011;3806;52.270;10.544;2022-10-16T03:06:34;2.30;;;1.67;;
7529;SDS011;3806;52.270;10.544;2022-10-16T03:08:59;4.70;;;2.95;;
7529;SDS011;3806;52.270;10.544;2022-10-16T03:11:25;2.75;;;1.83;;
7529;SDS011;3806;52.270;10.544;2022-10-16T03:13:51;2.95;;;1.75;;
7529;SDS011;3806;52.270;10.544;2022-10-16T03:16:17;5.22;;;1.98;;
7529;SDS011;3806;52.270;10.544;2022-10-16T03:18:42;3.40;;;1.70;;
7529;SDS011;3806;52.270;10.544;2022-10-16T03:21:08;3.53;;;1.83;;
7529;SDS011;3806;52.270;10.544;2022-10-16T03:23:34;2.20;;;1.67;;
7529;SDS011;3806;52.270;10.544;2022-10-16T03:25:59;1.90;;;1.50;;
7529;SDS011;3806;52.270;10.544;2022-10-16T03:28:25;4.15;;;1.95;;
7529;SDS011;3806;52.270;10.544;2022-10-16T03:30:50;5.07;;;2.10;;
7529;SDS011;3806;52.270;10.544;2022-10-16T03:33:16;5.07;;;1.70;;
7529;SDS011;3806;52.270;10.544;2022-10-16T03:35:42;5.07;;;1.80;;
7529;SDS011;3806;52.270;10.544;2022-10-16T03:38:10;6.97;;;1.67;;
7529;SDS011;3806;52.270;10.544;2022-10-16T03:40:35;5.32;;;1.58;;
7529;SDS011;3806;52.270;10.544;2022-10-16T03:43:01;2.40;;;1.50;;
7529;SDS011;3806;52.270;10.544;2022-10-16T03:45:26;2.42;;;1.50;;
7529;SDS011;3806;52.270;10.544;2022-10-16T03:47:52;3.40;;;1.90;;
7529;SDS011;3806;52.270;10.544;2022-10-16T03:50:18;2.35;;;1.63;;
7529;SDS011;3806;52.270;10.544;2022-10-16T03:52:43;4.03;;;1.80;;
7529;SDS011;3806;52.270;10.544;2022-10-16T03:55:09;2.45;;;1.70;;
7529;SDS011;3806;52.270;10.544;2022-10-16T03:57:34;4.10;;;1.80;;
7529;SDS011;3806;52.270;10.544;2022-10-16T04:00:00;4.57;;;1.65;;
7529;SDS011;3806;52.270;10.544;2022-10-16T04:02:26;2.63;;;1.63;;
7529;SDS011;3806;52.270;10.544;2022-10-16T04:04:51;3.25;;;1.70;;
7529;SDS011;3806;52.270;10.544;2022-10-16T04:07:17;3.20;;;1.92;;
7529;SDS011;3806;52.270;10.544;2022-10-16T04:09:43;4.82;;;1.90;;
7529;SDS011;3806;52.270;10.544;2022-10-16T04:12:08;4.35;;;1.80;;
7529;SDS011;3806;52.270;10.544;2022-10-16T04:14:34;3.50;;;1.63;;
7529;SDS011;3806;52.270;10.544;2022-10-16T04:17:00;2.03;;;1.45;;
7529;SDS011;3806;52.270;10.544;2022-10-16T04:19:25;3.40;;;1.65;;
7529;SDS011;3806;52.270;10.544;2022-10-16T04:21:51;2.40;;;1.30;;
7529;SDS011;3806;52.270;10.544;2022-10-16T04:24:17;4.53;;;1.80;;
7529;SDS011;3806;52.270;10.544;2022-10-16T04:26:42;3.80;;;1.73;;
7529;SDS011;3806;52.270;10.544;2022-10-16T04:29:08;3.70;;;1.85;;
7529;SDS011;3806;52.270;10.544;2022-10-16T04:31:33;3.22;;;1.77;;
7529;SDS011;3806;52.270;10.544;2022-10-16T04:33:59;2.63;;;1.70;;
7529;SDS011;3806;52.270;10.544;2022-10-16T04:36:25;3.65;;;1.52;;
7529;SDS011;3806;52.270;10.544;2022-10-16T04:38:50;2.55;;;1.75;;
7529;SDS011;3806;52.270;10.544;2022-10-16T04:41:16;2.00;;;1.48;;
7529;SDS011;3806;52.270;10.544;2022-10-16T04:43:41;2.10;;;1.60;;
7529;SDS011;3806;52.270;10.544;2022-10-16T04:46:07;4.10;;;1.80;;
7529;SDS011;3806;52.270;10.544;2022-10-16T04:48:33;2.70;;;1.80;;
7529;SDS011;3806;52.270;10.544;2022-10-16T04:50:58;1.65;;;1.42;;
7529;SDS011;3806;52.270;10.544;2022-10-16T04:53:24;2.75;;;1.55;;
7529;SDS011;3806;52.270;10.544;2022-10-16T04:55:50;5.13;;;2.00;;
7529;SDS011;3806;52.270;10.544;2022-10-16T04:58:16;2.25;;;1.48;;
7529;SDS011;3806;52.270;10.544;2022-10-16T05:00:42;1.80;;;1.27;;
7529;SDS011;3806;52.270;10.544;2022-10-16T05:03:09;2.60;;;1.50;;
7529;SDS011;3806;52.270;10.544;2022-10-16T05:05:35;1.88;;;1.50;;
7529;SDS011;3806;52.270;10.544;2022-10-16T05:08:01;2.10;;;1.42;;
7529;SDS011;3806;52.270;10.544;2022-10-16T05:10:28;5.68;;;1.80;;
7529;SDS011;3806;52.270;10.544;2022-10-16T05:12:53;3.60;;;1.67;;
7529;SDS011;3806;52.270;10.544;2022-10-16T05:15:19;3.13;;;1.65;;
7529;SDS011;3806;52.270;10.544;2022-10-16T05:17:45;5.03;;;1.52;;
7529;SDS011;3806;52.270;10.544;2022-10-16T05:20:10;5.53;;;2.05;;
7529;SDS011;3806;52.270;10.544;2022-10-16T05:22:36;2.20;;;1.70;;
7529;SDS011;3806;52.270;10.544;2022-10-16T05:25:02;2.28;;;1.48;;
7529;SDS011;3806;52.270;10.544;2022-10-16T05:27:28;2.53;;;1.70;;
7529;SDS011;3806;52.270;10.544;2022-10-16T05:29:54;2.15;;;1.50;;
7529;SDS011;3806;52.270;10.544;2022-10-16T05:32:19;5.32;;;1.80;;
7529;SDS011;3806;52.270;10.544;2022-10-16T05:34:45;1.90;;;1.70;;
7529;SDS011;3806;52.270;10.544;2022-10-16T05:37:11;2.85;;;1.70;;
7529;SDS011;3806;52.270;10.544;2022-10-16T05:39:37;1.80;;;1.58;;
7529;SDS011;3806;52.270;10.544;2022-10-16T05:42:04;3.13;;;2.50;;
7529;SDS011;3806;52.270;10.544;2022-10-16T05:44:30;2.83;;;1.73;;
7529;SDS011;3806;52.270;10.544;2022-10-16T05:46:56;2.00;;;1.55;;
7529;SDS011;3806;52.270;10.544;2022-10-16T05:49:21;4.60;;;1.90;;
7529;SDS011;3806;52.270;10.544;2022-10-16T05:51:47;2.63;;;1.77;;
7529;SDS011;3806;52.270;10.544;2022-10-16T05:54:13;3.08;;;2.10;;
7529;SDS011;3806;52.270;10.544;2022-10-16T05:56:38;3.38;;;1.75;;
7529;SDS011;3806;52.270;10.544;2022-10-16T05:59:04;1.88;;;1.63;;
7529;SDS011;3806;52.270;10.544;2022-10-16T06:01:30;2.08;;;1.58;;
7529;SDS011;3806;52.270;10.544;2022-10-16T06:03:56;3.88;;;1.80;;
7529;SDS011;3806;52.270;10.544;2022-10-16T06:06:23;3.17;;;1.73;;
7529;SDS011;3806;52.270;10.544;2022-10-16T06:08:51;2.10;;;1.58;;
7529;SDS011;3806;52.270;10.544;2022-10-16T06:11:18;2.38;;;1.90;;
7529;SDS011;3806;52.270;10.544;2022-10-16T06:13:49;2.60;;;1.50;;
7529;SDS011;3806;52.270;10.544;2022-10-16T06:16:19;4.00;;;1.77;;
7529;SDS011;3806;52.270;10.544;2022-10-16T06:18:48;2.10;;;1.67;;
7529;SDS011;3806;52.270;10.544;2022-10-16T06:21:17;3.88;;;1.48;;
7529;SDS011;3806;52.270;10.544;2022-10-16T06:23:46;1.95;;;1.50;;
7529;SDS011;3806;52.270;10.544;2022-10-16T06:26:13;3.60;;;1.67;;
7529;SDS011;3806;52.270;10.544;2022-10-16T06:28:43;1.98;;;1.70;;
7529;SDS011;3806;52.270;10.544;2022-10-16T06:31:09;3.40;;;1.73;;
7529;SDS011;3806;52.270;10.544;2022-10-16T06:33:36;2.55;;;1.75;;
7529;SDS011;3806;52.270;10.544;2022-10-16T06:36:06;1.67;;;1.50;;
7529;SDS011;3806;52.270;10.544;2022-10-16T06:38:37;2.50;;;1.98;;
7529;SDS011;3806;52.270;10.544;2022-10-16T06:41:03;2.50;;;1.55;;
7529;SDS011;3806;52.270;10.544;2022-10-16T06:43:30;2.00;;;1.50;;
7529;SDS011;3806;52.270;10.544;2022-10-16T06:46:02;3.72;;;1.55;;
7529;SDS011;3806;52.270;10.544;2022-10-16T06:48:30;1.58;;;1.33;;
7529;SDS011;3806;52.270;10.544;2022-10-16T06:53:33;2.28;;;1.40;;
7529;SDS011;3806;52.270;10.544;2022-10-16T06:56:11;3.35;;;1.67;;
7529;SDS011;3806;52.270;10.544;2022-10-16T06:58:39;2.15;;;1.70;;
7529;SDS011;3806;52.270;10.544;2022-10-16T07:01:06;2.58;;;1.70;;
7529;SDS011;3806;52.270;10.544;2022-10-16T07:03:32;3.72;;;1.52;;
7529;SDS011;3806;52.270;10.544;2022-10-16T07:06:01;2.05;;;1.52;;
7529;SDS011;3806;52.270;10.544;2022-10-16T07:08:30;1.92;;;1.50;;
7529;SDS011;3806;52.270;10.544;2022-10-16T07:11:00;1.30;;;1.10;;
7529;SDS011;3806;52.270;10.544;2022-10-16T07:13:27;1.88;;;1.60;;
7529;SDS011;3806;52.270;10.544;2022-10-16T07:15:53;3.63;;;1.60;;
7529;SDS011;3806;52.270;10.544;2022-10-16T07:18:18;1.80;;;1.50;;
7529;SDS011;3806;52.270;10.544;2022-10-16T07:20:44;2.33;;;1.45;;
7529;SDS011;3806;52.270;10.544;2022-10-16T07:23:09;3.90;;;1.38;;
7529;SDS011;3806;52.270;10.544;2022-10-16T07:25:35;1.65;;;1.25;;
7529;SDS011;3806;52.270;10.544;2022-10-16T07:28:01;2.17;;;1.60;;
7529;SDS011;3806;52.270;10.544;2022-10-16T07:30:26;2.08;;;1.27;;
7529;SDS011;3806;52.270;10.544;2022-10-16T07:32:52;1.50;;;1.10;;
7529;SDS011;3806;52.270;10.544;2022-10-16T07:35:17;3.45;;;1.30;;
7529;SDS011;3806;52.270;10.544;2022-10-16T07:37:46;3.78;;;1.10;;
7529;SDS011;3806;52.270;10.544;2022-10-16T07:40:12;3.45;;;1.30;;
7529;SDS011;3806;52.270;10.544;2022-10-16T07:42:38;2.95;;;1.58;;
7529;SDS011;3806;52.270;10.544;2022-10-16T07:45:03;1.33;;;1.10;;
7529;SDS011;3806;52.270;10.544;2022-10-16T07:47:29;2.85;;;1.17;;
7529;SDS011;3806;52.270;10.544;2022-10-16T07:49:55;2.75;;;1.23;;
7529;SDS011;3806;52.270;10.544;2022-10-16T07:52:21;2.92;;;0.98;;
7529;SDS011;3806;52.270;10.544;2022-10-16T07:54:46;1.25;;;0.90;;
7529;SDS011;3806;52.270;10.544;2022-10-16T07:57:12;2.90;;;0.90;;
7529;SDS011;3806;52.270;10.544;2022-10-16T07:59:43;1.25;;;0.88;;
7529;SDS011;3806;52.270;10.544;2022-10-16T08:02:10;5.32;;;0.95;;
7529;SDS011;3806;52.270;10.544;2022-10-16T08:04:35;2.42;;;0.93;;
7529;SDS011;3806;52.270;10.544;2022-10-16T08:07:01;1.77;;;0.70;;
7529;SDS011;3806;52.270;10.544;2022-10-16T08:09:27;1.58;;;0.68;;
7529;SDS011;3806;52.270;10.544;2022-10-16T08:11:52;1.90;;;0.60;;
7529;SDS011;3806;52.270;10.544;2022-10-16T08:14:18;3.10;;;0.70;;
7529;SDS011;3806;52.270;10.544;2022-10-16T08:16:43;1.33;;;0.85;;
7529;SDS011;3806;52.270;10.544;2022-10-16T08:19:09;1.83;;;0.68;;
7529;SDS011;3806;52.270;10.544;2022-10-16T08:21:34;0.70;;;0.45;;
7529;SDS011;3806;52.270;10.544;2022-10-16T08:24:00;1.55;;;0.77;;
7529;SDS011;3806;52.270;10.544;2022-10-16T08:26:26;1.90;;;0.90;;
7529;SDS011;3806;52.270;10.544;2022-10-16T08:28:52;2.30;;;1.05;;
7529;SDS011;3806;52.270;10.544;2022-10-16T08:31:18;2.05;;;1.20;;
7529;SDS011;3806;52.270;10.544;2022-10-16T08:33:44;2.53;;;1.05;;
7529;SDS011;3806;52.270;10.544;2022-10-16T08:36:12;2.20;;;1.08;;
7529;SDS011;3806;52.270;10.544;2022-10-16T08:38:38;2.72;;;0.93;;
7529;SDS011;3806;52.270;10.544;2022-10-16T08:41:13;1.48;;;0.68;;
7529;SDS011;3806;52.270;10.544;2022-10-16T08:49:11;2.95;;;0.85;;
7529;SDS011;3806;52.270;10.544;2022-10-16T08:51:40;1.63;;;0.90;;
7529;SDS011;3806;52.270;10.544;2022-10-16T08:56:55;1.05;;;0.73;;
7529;SDS011;3806;52.270;10.544;2022-10-16T08:59:42;1.58;;;0.82;;
7529;SDS011;3806;52.270;10.544;2022-10-16T09:02:43;2.75;;;1.05;;
7529;SDS011;3806;52.270;10.544;2022-10-16T09:05:24;1.30;;;0.60;;
7529;SDS011;3806;52.270;10.544;2022-10-16T09:13:54;1.48;;;0.47;;
7529;SDS011;3806;52.270;10.544;2022-10-16T09:16:19;0.35;;;0.25;;
7529;SDS011;3806;52.270;10.544;2022-10-16T09:21:30;4.00;;;0.50;;
7529;SDS011;3806;52.270;10.544;2022-10-16T09:24:00;0.93;;;0.35;;
7529;SDS011;3806;52.270;10.544;2022-10-16T09:26:36;0.35;;;0.35;;
7529;SDS011;3806;52.270;10.544;2022-10-16T09:29:02;1.58;;;0.50;;
7529;SDS011;3806;52.270;10.544;2022-10-16T09:31:28;0.80;;;0.50;;
7529;SDS011;3806;52.270;10.544;2022-10-16T09:33:58;4.22;;;0.50;;
7529;SDS011;3806;52.270;10.544;2022-10-16T09:36:41;0.50;;;0.47;;
7529;SDS011;3806;52.270;10.544;2022-10-16T09:39:10;1.70;;;0.30;;
7529;SDS011;3806;52.270;10.544;2022-10-16T09:41:37;1.55;;;0.50;;
7529;SDS011;3806;52.270;10.544;2022-10-16T09:44:17;0.85;;;0.70;;
7529;SDS011;3806;52.270;10.544;2022-10-16T09:47:00;1.30;;;0.40;;
7529;SDS011;3806;52.270;10.544;2022-10-16T09:49:27;1.23;;;0.55;;
7529;SDS011;3806;52.270;10.544;2022-10-16T09:54:58;0.40;;;0.35;;
7529;SDS011;3806;52.270;10.544;2022-10-16T09:57:26;2.53;;;0.47;;
7529;SDS011;3806;52.270;10.544;2022-10-16T09:59:56;1.75;;;0.50;;
7529;SDS011;3806;52.270;10.544;2022-10-16T10:02:55;0.80;;;0.55;;
7529;SDS011;3806;52.270;10.544;2022-10-16T10:05:18;0.32;;;0.30;;
7529;SDS011;3806;52.270;10.544;2022-10-16T10:07:52;0.65;;;0.45;;
7529;SDS011;3806;52.270;10.544;2022-10-16T10:10:25;1.95;;;0.73;;
7529;SDS011;3806;52.270;10.544;2022-10-16T10:12:53;1.25;;;0.20;;
7529;SDS011;3806;52.270;10.544;2022-10-16T10:15:20;0.30;;;0.30;;
7529;SDS011;3806;52.270;10.544;2022-10-16T10:17:55;1.40;;;0.60;;
7529;SDS011;3806;52.270;10.544;2022-10-16T10:22:56;2.20;;;0.32;;
7529;SDS011;3806;52.270;10.544;2022-10-16T10:36:59;0.63;;;0.40;;
7529;SDS011;3806;52.270;10.544;2022-10-16T10:39:51;0.35;;;0.35;;
7529;SDS011;3806;52.270;10.544;2022-10-16T10:42:30;2.55;;;0.43;;
7529;SDS011;3806;52.270;10.544;2022-10-16T10:45:52;1.38;;;0.82;;
7529;SDS011;3806;52.270;10.544;2022-10-16T10:47:57;1.88;;;0.38;;
7529;SDS011;3806;52.270;10.544;2022-10-16T10:50:45;3.92;;;0.47;;
7529;SDS011;3806;52.270;10.544;2022-10-16T10:56:23;0.63;;;0.30;;
7529;SDS011;3806;52.270;10.544;2022-10-16T11:06:48;0.40;;;0.20;;
7529;SDS011;3806;52.270;10.544;2022-10-16T11:09:24;0.40;;;0.22;;
7529;SDS011;3806;52.270;10.544;2022-10-16T11:11:54;2.97;;;0.40;;
7529;SDS011;3806;52.270;10.544;2022-10-16T11:14:38;1.15;;;0.60;;
7529;SDS011;3806;52.270;10.544;2022-10-16T11:17:16;0.90;;;0.30;;
7529;SDS011;3806;52.270;10.544;2022-10-16T11:19:52;1.35;;;0.50;;
7529;SDS011;3806;52.270;10.544;2022-10-16T11:22:26;1.23;;;0.50;;
7529;SDS011;3806;52.270;10.544;2022-10-16T11:27:37;1.00;;;0.43;;
7529;SDS011;3806;52.270;10.544;2022-10-16T11:30:24;0.80;;;0.30;;
7529;SDS011;3806;52.270;10.544;2022-10-16T11:40:54;3.35;;;0.57;;
7529;SDS011;3806;52.270;10.544;2022-10-16T11:43:33;1.25;;;0.52;;
7529;SDS011;3806;52.270;10.544;2022-10-16T11:46:11;2.95;;;0.60;;
7529;SDS011;3806;52.270;10.544;2022-10-16T11:48:48;0.77;;;0.30;;
7529;SDS011;3806;52.270;10.544;2022-10-16T11:51:35;3.20;;;0.73;;
7529;SDS011;3806;52.270;10.544;2022-10-16T11:54:07;2.83;;;0.70;;
7529;SDS011;3806;52.270;10.544;2022-10-16T11:56:40;2.05;;;1.20;;
7529;SDS011;3806;52.270;10.544;2022-10-16T12:04:46;0.30;;;0.22;;
7529;SDS011;3806;52.270;10.544;2022-10-16T12:07:24;0.75;;;0.45;;
7529;SDS011;3806;52.270;10.544;2022-10-16T12:09:57;1.55;;;0.60;;
7529;SDS011;3806;52.270;10.544;2022-10-16T12:15:01;1.27;;;0.60;;
7529;SDS011;3806;52.270;10.544;2022-10-16T12:17:47;2.75;;;0.70;;
7529;SDS011;3806;52.270;10.544;2022-10-16T12:20:18;1.05;;;0.65;;
7529;SDS011;3806;52.270;10.544;2022-10-16T12:25:29;1.13;;;0.57;;
7529;SDS011;3806;52.270;10.544;2022-10-16T12:30:26;2.20;;;0.68;;
7529;SDS011;3806;52.270;10.544;2022-10-16T12:32:58;1.77;;;0.80;;
7529;SDS011;3806;52.270;10.544;2022-10-16T12:35:28;0.85;;;0.25;;
7529;SDS011;3806;52.270;10.544;2022-10-16T12:38:06;1.23;;;0.38;;
7529;SDS011;3806;52.270;10.544;2022-10-16T12:40:38;1.58;;;0.68;;
7529;SDS011;3806;52.270;10.544;2022-10-16T12:43:23;1.90;;;0.68;;
7529;SDS011;3806;52.270;10.544;2022-10-16T12:48:35;0.60;;;0.30;;
7529;SDS011;3806;52.270;10.544;2022-10-16T12:51:37;1.45;;;0.47;;
7529;SDS011;3806;52.270;10.544;2022-10-16T12:53:59;1.50;;;0.45;;
7529;SDS011;3806;52.270;10.544;2022-10-16T13:02:38;0.47;;;0.28;;
7529;SDS011;3806;52.270;10.544;2022-10-16T13:19:21;4.20;;;1.08;;
7529;SDS011;3806;52.270;10.544;2022-10-16T13:27:29;1.38;;;0.70;;
7529;SDS011;3806;52.270;10.544;2022-10-16T13:32:34;1.52;;;0.80;;
7529;SDS011;3806;52.270;10.544;2022-10-16T13:35:00;2.17;;;0.55;;
7529;SDS011;3806;52.270;10.544;2022-10-16T13:37:26;0.65;;;0.35;;
7529;SDS011;3806;52.270;10.544;2022-10-16T13:40:02;0.70;;;0.50;;
7529;SDS011;3806;52.270;10.544;2022-10-16T13:42:42;0.98;;;0.38;;
7529;SDS011;3806;52.270;10.544;2022-10-16T13:45:17;0.47;;;0.40;;
7529;SDS011;3806;52.270;10.544;2022-10-16T13:47:44;4.03;;;0.60;;
7529;SDS011;3806;52.270;10.544;2022-10-16T13:50:13;1.25;;;0.50;;
7529;SDS011;3806;52.270;10.544;2022-10-16T13:52:41;1.17;;;0.77;;
7529;SDS011;3806;52.270;10.544;2022-10-16T13:55:13;0.98;;;0.60;;
7529;SDS011;3806;52.270;10.544;2022-10-16T13:57:41;1.67;;;0.55;;
7529;SDS011;3806;52.270;10.544;2022-10-16T14:00:17;3.25;;;0.85;;
7529;SDS011;3806;52.270;10.544;2022-10-16T14:02:43;3.15;;;0.80;;
7529;SDS011;3806;52.270;10.544;2022-10-16T14:05:09;3.08;;;0.77;;
7529;SDS011;3806;52.270;10.544;2022-10-16T14:07:35;1.80;;;0.60;;
7529;SDS011;3806;52.270;10.544;2022-10-16T14:10:04;0.90;;;0.68;;
7529;SDS011;3806;52.270;10.544;2022-10-16T14:12:32;2.28;;;0.80;;
7529;SDS011;3806;52.270;10.544;2022-10-16T14:14:58;2.03;;;0.70;;
7529;SDS011;3806;52.270;10.544;2022-10-16T14:17:26;2.00;;;0.55;;
7529;SDS011;3806;52.270;10.544;2022-10-16T14:19:55;1.55;;;0.60;;
7529;SDS011;3806;52.270;10.544;2022-10-16T14:25:00;2.15;;;0.60;;
7529;SDS011;3806;52.270;10.544;2022-10-16T14:27:33;0.63;;;0.50;;
7529;SDS011;3806;52.270;10.544;2022-10-16T14:30:08;0.73;;;0.38;;
7529;SDS011;3806;52.270;10.544;2022-10-16T14:32:42;3.65;;;0.60;;
7529;SDS011;3806;52.270;10.544;2022-10-16T14:35:26;2.13;;;0.73;;
7529;SDS011;3806;52.270;10.544;2022-10-16T14:37:52;1.73;;;0.40;;
7529;SDS011;3806;52.270;10.544;2022-10-16T14:40:19;2.33;;;0.40;;
7529;SDS011;3806;52.270;10.544;2022-10-16T14:42:48;1.85;;;0.40;;
7529;SDS011;3806;52.270;10.544;2022-10-16T14:45:17;2.45;;;0.80;;
7529;SDS011;3806;52.270;10.544;2022-10-16T14:47:55;1.85;;;0.98;;
7529;SDS011;3806;52.270;10.544;2022-10-16T14:50:23;1.38;;;0.85;;
7529;SDS011;3806;52.270;10.544;2022-10-16T14:52:49;2.80;;;0.70;;
7529;SDS011;3806;52.270;10.544;2022-10-16T14:55:15;2.30;;;0.90;;
7529;SDS011;3806;52.270;10.544;2022-10-16T14:57:42;3.17;;;0.75;;
7529;SDS011;3806;52.270;10.544;2022-10-16T15:00:22;1.35;;;0.75;;
7529;SDS011;3806;52.270;10.544;2022-10-16T15:02:48;2.08;;;0.90;;
7529;SDS011;3806;52.270;10.544;2022-10-16T15:07:43;2.22;;;0.80;;
7529;SDS011;3806;52.270;10.544;2022-10-16T15:10:09;1.17;;;0.43;;
7529;SDS011;3806;52.270;10.544;2022-10-16T15:12:35;2.55;;;0.75;;
7529;SDS011;3806;52.270;10.544;2022-10-16T15:15:01;0.93;;;0.60;;
7529;SDS011;3806;52.270;10.544;2022-10-16T15:17:26;1.67;;;0.88;;
7529;SDS011;3806;52.270;10.544;2022-10-16T15:19:52;2.80;;;1.10;;
7529;SDS011;3806;52.270;10.544;2022-10-16T15:22:17;2.67;;;1.10;;
7529;SDS011;3806;52.270;10.544;2022-10-16T15:24:43;2.25;;;1.20;;
7529;SDS011;3806;52.270;10.544;2022-10-16T15:27:09;0.80;;;0.63;;
7529;SDS011;3806;52.270;10.544;2022-10-16T15:29:35;4.57;;;0.88;;
7529;SDS011;3806;52.270;10.544;2022-10-16T15:32:00;1.63;;;0.85;;
7529;SDS011;3806;52.270;10.544;2022-10-16T15:34:26;1.25;;;0.90;;
7529;SDS011;3806;52.270;10.544;2022-10-16T15:36:51;1.05;;;0.90;;
7529;SDS011;3806;52.270;10.544;2022-10-16T15:39:18;1.75;;;0.95;;
7529;SDS011;3806;52.270;10.544;2022-10-16T15:41:45;0.90;;;0.60;;
7529;SDS011;3806;52.270;10.544;2022-10-16T15:44:16;2.67;;;0.77;;
7529;SDS011;3806;52.270;10.544;2022-10-16T15:46:42;1.48;;;0.77;;
7529;SDS011;3806;52.270;10.544;2022-10-16T15:49:07;2.17;;;0.70;;
7529;SDS011;3806;52.270;10.544;2022-10-16T15:51:35;1.38;;;0.98;;
7529;SDS011;3806;52.270;10.544;2022-10-16T15:54:03;1.85;;;0.63;;
7529;SDS011;3806;52.270;10.544;2022-10-16T15:56:28;1.52;;;0.65;;
7529;SDS011;3806;52.270;10.544;2022-10-16T15:58:54;1.45;;;0.63;;
7529;SDS011;3806;52.270;10.544;2022-10-16T16:01:20;2.45;;;0.60;;
7529;SDS011;3806;52.270;10.544;2022-10-16T16:03:46;1.92;;;0.68;;
7529;SDS011;3806;52.270;10.544;2022-10-16T16:06:12;1.80;;;1.00;;
7529;SDS011;3806;52.270;10.544;2022-10-16T16:08:39;2.67;;;1.10;;
7529;SDS011;3806;52.270;10.544;2022-10-16T16:11:05;3.85;;;0.88;;
7529;SDS011;3806;52.270;10.544;2022-10-16T16:13:33;2.90;;;0.93;;
7529;SDS011;3806;52.270;10.544;2022-10-16T16:15:59;1.58;;;1.05;;
7529;SDS011;3806;52.270;10.544;2022-10-16T16:18:25;2.10;;;0.90;;
7529;SDS011;3806;52.270;10.544;2022-10-16T16:20:51;3.42;;;1.05;;
7529;SDS011;3806;52.270;10.544;2022-10-16T16:23:17;1.92;;;1.10;;
7529;SDS011;3806;52.270;10.544;2022-10-16T16:25:44;2.70;;;1.33;;
7529;SDS011;3806;52.270;10.544;2022-10-16T16:28:09;3.83;;;1.02;;
7529;SDS011;3806;52.270;10.544;2022-10-16T16:30:39;1.42;;;0.90;;
7529;SDS011;3806;52.270;10.544;2022-10-16T16:33:05;1.55;;;0.80;;
7529;SDS011;3806;52.270;10.544;2022-10-16T16:35:30;3.58;;;1.02;;
7529;SDS011;3806;52.270;10.544;2022-10-16T16:37:56;3.97;;;1.00;;
7529;SDS011;3806;52.270;10.544;2022-10-16T16:40:21;1.17;;;0.80;;
7529;SDS011;3806;52.270;10.544;2022-10-16T16:42:47;6.30;;;4.03;;
7529;SDS011;3806;52.270;10.544;2022-10-16T16:45:13;7.95;;;4.70;;
7529;SDS011;3806;52.270;10.544;2022-10-16T16:47:39;14.30;;;6.05;;
7529;SDS011;3806;52.270;10.544;2022-10-16T16:50:05;5.75;;;3.35;;
7529;SDS011;3806;52.270;10.544;2022-10-16T16:52:31;5.93;;;3.13;;
7529;SDS011;3806;52.270;10.544;2022-10-16T16:54:58;2.47;;;2.00;;
7529;SDS011;3806;52.270;10.544;2022-10-16T16:57:23;1.88;;;1.35;;
7529;SDS011;3806;52.270;10.544;2022-10-16T16:59:49;3.08;;;1.70;;
7529;SDS011;3806;52.270;10.544;2022-10-16T17:02:16;3.95;;;2.15;;
7529;SDS011;3806;52.270;10.544;2022-10-16T17:04:42;2.60;;;1.20;;
7529;SDS011;3806;52.270;10.544;2022-10-16T17:07:07;5.82;;;1.50;;
7529;SDS011;3806;52.270;10.544;2022-10-16T17:09:33;5.30;;;1.33;;
7529;SDS011;3806;52.270;10.544;2022-10-16T17:11:59;3.53;;;1.30;;
7529;SDS011;3806;52.270;10.544;2022-10-16T17:14:24;1.73;;;1.10;;
7529;SDS011;3806;52.270;10.544;2022-10-16T17:16:51;3.15;;;1.08;;